ESMS

Malmö Sturup Airport

Malmö, Sweden
TAF ESMS 221107Z 2212/2312 18008KT 9999 BKN020 TEMPO 2212/2220 3000 BR BKN005 TEMPO 2220/2223 BKN008
Issued Valid From Valid To
Jan-22 @ 11:07 UTC
(6 hours ago)
Jan-22 @ 12:00 UTC
(5 hours ago)
Jan-23 @ 12:00 UTC
(in 19 hours)
Jan-22 @ 12:00 to Jan-23 @ 12:00
TAF ESMS 221107Z 2212/2312 18008KT 9999 BKN020
Wind Visibility Clouds
180° at 8 knots 10,000+ meters
  • Broken at 2,000' AGL
Temporary Jan-22 @ 12:00 to Jan-22 @ 20:00
TEMPO 2212/2220 3000 BR BKN005
Visibility Clouds Conditions
2,993 meters
  • Broken at 500' AGL
  • Mist
Temporary Jan-22 @ 20:00 to Jan-22 @ 23:00
TEMPO 2220/2223 BKN008
Clouds
  • Broken at 800' AGL
TAF ESMS 221107Z 2212/2312 18008KT 9999 BKN020 TEMPO 2212/2220 3000 BR BKN005 TEMPO 2220/2223 BKN008
Issued Jan-22 @ 11:07 UTC
(6 hours ago)
Valid From Jan-22 @ 12:00 UTC
(5 hours ago)
Valid To Jan-23 @ 12:00 UTC
(in 19 hours)
Jan-22 @ 12:00 - Jan-23 @ 12:00
Wind Visibility
180° at 8 knots 10,000+ meters
Clouds
  • Broken at 2,000' AGL
Temporary Jan-22 @ 12:00 - Jan-22 @ 20:00
Clouds
  • Broken at 500' AGL
Conditions
  • Mist
Temporary Jan-22 @ 20:00 - Jan-22 @ 23:00
Clouds
  • Broken at 800' AGL